createdAt,value
2023-01-20T00:00:44.667Z,53.90
2023-01-20T00:03:14.860Z,53.74
2023-01-20T00:05:54.176Z,53.64
2023-01-20T00:08:27.318Z,53.71
2023-01-20T00:10:57.450Z,53.61
2023-01-20T00:13:27.641Z,53.49
2023-01-20T00:15:57.519Z,53.23
2023-01-20T00:18:27.384Z,53.27
2023-01-20T00:20:57.236Z,53.09
2023-01-20T00:23:27.143Z,53.10
2023-01-20T00:25:56.953Z,53.16
2023-01-20T00:28:26.880Z,53.17
2023-01-20T00:30:56.869Z,53.03
2023-01-20T00:33:26.863Z,52.91
2023-01-20T00:35:56.726Z,52.86
2023-01-20T00:38:26.624Z,52.98
2023-01-20T00:40:57.561Z,52.87
2023-01-20T00:43:27.651Z,52.90
2023-01-20T00:45:57.747Z,52.82
2023-01-20T00:48:27.925Z,52.64
2023-01-20T00:50:57.981Z,52.80
2023-01-20T00:53:28.324Z,52.56
2023-01-20T00:55:58.289Z,52.44
2023-01-20T00:58:28.779Z,52.33
2023-01-20T01:01:00.947Z,52.37
2023-01-20T01:03:31.337Z,52.58
2023-01-20T01:06:15.908Z,52.42
2023-01-20T01:08:47.248Z,52.58
2023-01-20T01:11:17.034Z,52.36
2023-01-20T01:13:47.272Z,52.44
2023-01-20T01:16:18.947Z,52.41
2023-01-20T01:18:49.337Z,52.46
2023-01-20T01:21:19.980Z,52.35
2023-01-20T01:23:50.320Z,52.38
2023-01-20T01:26:20.630Z,52.32
2023-01-20T01:28:52.512Z,52.28
2023-01-20T01:31:26.826Z,52.39
2023-01-20T01:33:56.841Z,52.32
2023-01-20T01:36:26.720Z,52.30
2023-01-20T01:38:57.481Z,52.36
2023-01-20T01:41:29.229Z,52.31
2023-01-20T01:44:14.189Z,52.39
2023-01-20T01:46:44.990Z,52.46
2023-01-20T01:49:27.417Z,52.38
2023-01-20T01:52:05.856Z,52.27
2023-01-20T01:54:40.810Z,52.32
2023-01-20T01:57:12.229Z,52.43
2023-01-20T01:59:42.078Z,52.33
2023-01-20T02:02:12.086Z,52.28
2023-01-20T02:04:45.427Z,52.13
2023-01-20T02:07:18.905Z,52.25
2023-01-20T02:09:49.097Z,52.44
2023-01-20T02:12:23.411Z,52.36
2023-01-20T02:14:57.512Z,52.36
2023-01-20T02:17:41.372Z,52.25
2023-01-20T02:20:54.273Z,52.34
2023-01-20T02:23:46.114Z,52.28
2023-01-20T02:26:28.881Z,52.18
2023-01-20T02:29:32.116Z,52.33
2023-01-20T02:32:17.416Z,52.20
2023-01-20T02:34:56.382Z,52.35
2023-01-20T02:37:30.679Z,52.42
2023-01-20T02:40:20.394Z,52.34
2023-01-20T02:43:18.771Z,52.27
2023-01-20T02:46:03.707Z,52.40
2023-01-20T02:51:45.459Z,52.19
2023-01-20T02:54:19.427Z,52.22
2023-01-20T02:56:52.275Z,51.88
2023-01-20T02:59:26.895Z,52.03
2023-01-20T03:02:06.951Z,51.82
2023-01-20T03:05:00.223Z,52.09
2023-01-20T03:07:52.000Z,51.41
2023-01-20T03:10:26.185Z,51.56
2023-01-20T03:13:11.815Z,51.59
2023-01-20T03:15:59.629Z,51.71
2023-01-20T03:18:33.373Z,51.78
2023-01-20T03:21:05.450Z,51.66
2023-01-20T03:23:38.581Z,51.77
2023-01-20T03:26:12.215Z,51.67
2023-01-20T03:28:44.679Z,51.71
2023-01-20T03:31:27.598Z,51.55
2023-01-20T03:34:03.177Z,51.80
2023-01-20T03:36:35.199Z,51.51
2023-01-20T03:39:05.821Z,51.31
2023-01-20T03:42:12.745Z,51.47
2023-01-20T03:45:07.044Z,51.13
2023-01-20T03:47:45.793Z,50.80
2023-01-20T03:50:39.989Z,50.77
2023-01-20T03:56:21.916Z,50.90
2023-01-20T03:58:55.965Z,51.17
2023-01-20T04:01:38.315Z,51.11
2023-01-20T04:04:13.495Z,50.93
2023-01-20T04:06:45.895Z,50.96
2023-01-20T04:09:39.356Z,50.86
2023-01-20T04:12:09.904Z,51.16
2023-01-20T04:14:41.151Z,51.50
2023-01-20T04:17:33.343Z,51.62
2023-01-20T04:20:13.140Z,51.60
2023-01-20T04:22:55.527Z,51.68
2023-01-20T04:25:34.179Z,51.72
2023-01-20T04:28:04.528Z,51.71
2023-01-20T04:30:34.590Z,51.60
2023-01-20T04:33:04.526Z,51.65
2023-01-20T04:35:34.350Z,51.67
2023-01-20T04:38:04.326Z,51.66
2023-01-20T04:40:34.212Z,51.78
2023-01-20T04:43:04.571Z,51.66
2023-01-20T04:45:34.650Z,51.50
2023-01-20T04:48:08.688Z,51.39
2023-01-20T04:50:44.222Z,51.39
2023-01-20T04:53:32.767Z,51.39
2023-01-20T04:56:04.421Z,51.55
2023-01-20T04:58:34.571Z,51.46
2023-01-20T05:01:05.103Z,51.47
2023-01-20T05:03:35.231Z,51.63
2023-01-20T05:06:05.291Z,51.64
2023-01-20T05:08:36.957Z,51.54
2023-01-20T05:11:07.663Z,51.57
2023-01-20T05:16:28.380Z,51.68
2023-01-20T05:18:57.960Z,51.65
2023-01-20T05:21:28.437Z,51.78
2023-01-20T05:23:59.473Z,51.86
2023-01-20T05:26:29.597Z,52.02
2023-01-20T05:28:59.522Z,51.96
2023-01-20T05:31:30.715Z,51.91
2023-01-20T05:34:00.521Z,51.79
2023-01-20T05:36:32.072Z,51.83
2023-01-20T05:39:02.080Z,51.67
2023-01-20T05:41:31.911Z,51.28
2023-01-20T05:44:02.036Z,51.34
2023-01-20T05:46:31.925Z,51.44
2023-01-20T05:49:01.755Z,51.67
2023-01-20T05:51:31.777Z,51.59
2023-01-20T05:54:02.168Z,51.61
2023-01-20T05:56:32.357Z,51.85
2023-01-20T05:59:02.448Z,51.90
2023-01-20T06:01:32.370Z,51.76
2023-01-20T06:04:02.273Z,51.71
2023-01-20T06:06:32.213Z,51.70
2023-01-20T06:09:02.050Z,51.63
2023-01-20T06:11:31.879Z,51.70
2023-01-20T06:14:01.704Z,51.65
2023-01-20T06:16:32.537Z,51.52
2023-01-20T06:19:03.644Z,50.95
2023-01-20T06:21:33.679Z,50.79
2023-01-20T06:24:03.534Z,51.22
2023-01-20T06:26:33.392Z,51.32
2023-01-20T06:29:03.756Z,51.22
2023-01-20T06:31:33.847Z,51.36
2023-01-20T06:34:03.814Z,51.39
2023-01-20T06:36:33.831Z,51.46
2023-01-20T06:39:03.607Z,51.08
2023-01-20T06:41:33.759Z,51.11
2023-01-20T06:44:03.859Z,51.25
2023-01-20T06:46:33.750Z,51.60
2023-01-20T06:49:03.733Z,51.05
2023-01-20T06:51:35.595Z,51.32
2023-01-20T06:54:05.653Z,51.23
2023-01-20T06:56:35.783Z,51.40
2023-01-20T06:59:05.602Z,51.64
2023-01-20T07:01:35.948Z,51.68
2023-01-20T07:04:06.004Z,51.39
2023-01-20T07:06:43.631Z,50.93
2023-01-20T07:09:15.225Z,51.35
2023-01-20T07:14:32.787Z,51.50
2023-01-20T07:17:02.793Z,51.77
2023-01-20T07:19:32.664Z,51.74
2023-01-20T07:22:02.538Z,51.64
2023-01-20T07:24:32.748Z,51.91
2023-01-20T07:27:02.888Z,51.86
2023-01-20T07:29:32.772Z,51.54
2023-01-20T07:32:02.613Z,51.94
2023-01-20T07:34:32.938Z,51.83
2023-01-20T07:37:05.773Z,51.82
2023-01-20T07:39:35.874Z,51.74
2023-01-20T07:42:05.845Z,51.71
2023-01-20T07:44:35.735Z,51.25
2023-01-20T07:47:05.580Z,51.20
2023-01-20T07:49:35.404Z,51.77
2023-01-20T07:52:05.423Z,51.76
2023-01-20T07:54:35.327Z,51.39
2023-01-20T07:57:08.764Z,51.58
2023-01-20T07:59:38.804Z,51.64
2023-01-20T08:02:08.755Z,51.80
2023-01-20T08:04:38.615Z,51.49
2023-01-20T08:07:08.752Z,51.59
2023-01-20T08:09:38.587Z,51.90
2023-01-20T08:12:08.909Z,51.87
2023-01-20T08:17:24.505Z,52.19
2023-01-20T08:19:54.535Z,52.02
2023-01-20T08:22:24.366Z,52.15
2023-01-20T08:24:54.373Z,51.92
2023-01-20T08:27:24.349Z,52.21
2023-01-20T08:29:57.793Z,52.10
2023-01-20T08:32:27.876Z,52.06
2023-01-20T08:34:58.363Z,51.91
2023-01-20T08:37:28.843Z,51.85
2023-01-20T08:39:58.789Z,51.91
2023-01-20T08:42:28.976Z,51.86
2023-01-20T08:44:59.197Z,51.66
2023-01-20T08:47:29.559Z,52.27
2023-01-20T08:49:59.667Z,52.45
2023-01-20T08:52:30.809Z,52.18
2023-01-20T08:55:01.133Z,52.25
2023-01-20T08:57:31.467Z,52.19
2023-01-20T09:00:03.448Z,52.24
2023-01-20T09:02:33.817Z,52.09
2023-01-20T09:05:03.963Z,52.18
2023-01-20T09:07:33.995Z,52.37
2023-01-20T09:10:04.195Z,52.27
2023-01-20T09:12:34.413Z,52.49
2023-01-20T09:15:05.115Z,52.43
2023-01-20T09:17:36.891Z,52.25
2023-01-20T09:20:07.410Z,52.53
2023-01-20T09:22:37.488Z,52.45
2023-01-20T09:27:53.200Z,52.64
2023-01-20T09:30:23.203Z,52.71
2023-01-20T09:32:55.448Z,52.74
2023-01-20T09:35:43.447Z,52.86
2023-01-20T09:38:34.069Z,52.91
2023-01-20T09:41:25.276Z,52.89
2023-01-20T09:44:13.811Z,52.94
2023-01-20T09:47:16.890Z,52.86
2023-01-20T09:50:48.882Z,52.74
2023-01-20T09:53:42.541Z,52.88
2023-01-20T09:56:19.483Z,52.85
2023-01-20T09:59:04.739Z,52.89
2023-01-20T10:01:52.912Z,52.84
2023-01-20T10:04:26.854Z,53.09
2023-01-20T10:07:06.060Z,52.89
2023-01-20T10:09:51.649Z,53.11
2023-01-20T10:12:34.772Z,52.90
2023-01-20T10:15:14.827Z,53.42
2023-01-20T10:18:02.128Z,53.17
2023-01-20T10:20:52.414Z,53.43
2023-01-20T10:23:58.984Z,53.34
2023-01-20T10:26:56.317Z,53.31
2023-01-20T10:29:39.472Z,53.38
2023-01-20T10:32:24.344Z,53.48
2023-01-20T10:34:59.291Z,53.61
2023-01-20T10:37:29.932Z,53.58
2023-01-20T10:40:24.525Z,53.47
2023-01-20T10:43:01.176Z,53.51
2023-01-20T10:46:18.544Z,53.78
2023-01-20T10:49:08.447Z,53.65
2023-01-20T10:51:48.574Z,53.71
2023-01-20T10:54:27.726Z,53.93
2023-01-20T10:57:01.478Z,54.04
2023-01-20T10:59:34.013Z,53.97
2023-01-20T11:02:16.236Z,54.26
2023-01-20T11:04:49.748Z,54.17
2023-01-20T11:07:21.607Z,54.11
2023-01-20T11:09:51.997Z,54.31
2023-01-20T11:12:28.001Z,54.34
2023-01-20T11:15:02.170Z,54.23
2023-01-20T11:17:32.292Z,54.35
2023-01-20T11:20:08.987Z,54.35
2023-01-20T11:22:40.433Z,54.26
2023-01-20T11:25:24.489Z,54.13
2023-01-20T11:27:55.290Z,54.28
2023-01-20T11:30:37.010Z,54.32
2023-01-20T11:33:11.462Z,54.62
2023-01-20T11:35:41.661Z,54.62
2023-01-20T11:38:26.415Z,54.72
2023-01-20T11:40:59.382Z,54.74
2023-01-20T11:43:36.917Z,54.81
2023-01-20T11:46:15.531Z,54.90
2023-01-20T11:48:45.820Z,54.89
2023-01-20T11:51:27.957Z,54.97
2023-01-20T11:54:22.570Z,54.94
2023-01-20T11:57:07.149Z,54.85
2023-01-20T11:59:39.427Z,54.99
2023-01-20T12:02:12.634Z,54.83
2023-01-20T12:05:15.739Z,54.81
2023-01-20T12:07:51.796Z,55.03
2023-01-20T12:10:37.347Z,54.88
2023-01-20T12:13:32.501Z,54.97
2023-01-20T12:16:04.422Z,54.75
2023-01-20T12:19:00.547Z,54.81
2023-01-20T12:21:43.570Z,54.89
2023-01-20T12:25:05.222Z,54.98
2023-01-20T12:27:36.421Z,55.14
2023-01-20T12:30:22.945Z,54.97
2023-01-20T12:32:53.711Z,54.73
2023-01-20T12:35:28.018Z,54.45
2023-01-20T12:38:03.868Z,54.39
2023-01-20T12:40:51.156Z,54.14
2023-01-20T12:43:24.394Z,53.81
2023-01-20T12:46:01.690Z,53.85
2023-01-20T12:48:46.758Z,53.57
2023-01-20T12:51:23.086Z,53.61
2023-01-20T12:54:06.569Z,53.81
2023-01-20T12:57:09.153Z,53.87
2023-01-20T13:03:23.947Z,54.01
2023-01-20T13:06:33.621Z,54.20
2023-01-20T13:12:12.967Z,54.32
2023-01-20T13:14:47.535Z,54.51
2023-01-20T13:17:41.710Z,54.17
2023-01-20T13:20:25.215Z,53.89
2023-01-20T13:22:57.633Z,53.99
2023-01-20T13:25:28.744Z,53.86
2023-01-20T13:28:27.277Z,53.65
2023-01-20T13:31:00.154Z,53.90
2023-01-20T13:33:33.301Z,53.70
2023-01-20T13:36:22.988Z,53.58
2023-01-20T13:39:14.114Z,53.39
2023-01-20T13:42:40.750Z,53.71
2023-01-20T13:45:17.345Z,53.87
2023-01-20T13:47:59.735Z,53.83
2023-01-20T13:50:38.095Z,53.92
2023-01-20T13:53:27.526Z,54.01
2023-01-20T13:56:32.117Z,54.11
2023-01-20T13:59:02.367Z,53.92
2023-01-20T14:01:32.663Z,54.13
2023-01-20T14:04:16.860Z,53.31
2023-01-20T14:06:55.069Z,53.32
2023-01-20T14:09:27.644Z,53.56
2023-01-20T14:12:00.483Z,53.19
2023-01-20T14:14:30.820Z,53.36
2023-01-20T14:17:04.638Z,53.43
2023-01-20T14:19:57.391Z,52.67
2023-01-20T14:22:34.289Z,53.03
2023-01-20T14:25:04.692Z,53.13
2023-01-20T14:27:43.970Z,52.92
2023-01-20T14:30:24.145Z,53.07
2023-01-20T14:32:55.556Z,53.18
2023-01-20T14:35:30.171Z,52.61
2023-01-20T14:38:01.233Z,52.56
2023-01-20T14:40:36.357Z,52.59
2023-01-20T14:43:31.017Z,52.72
2023-01-20T14:46:01.952Z,52.93
2023-01-20T14:48:34.840Z,52.77
2023-01-20T14:51:06.467Z,52.91
2023-01-20T14:53:36.481Z,52.49
2023-01-20T14:56:09.901Z,52.97
2023-01-20T14:58:48.609Z,53.00
2023-01-20T15:01:27.780Z,52.81
2023-01-20T15:04:04.307Z,52.98
2023-01-20T15:06:35.009Z,52.60
2023-01-20T15:09:07.303Z,52.57
2023-01-20T15:11:38.749Z,52.37
2023-01-20T15:14:12.223Z,52.87
2023-01-20T15:16:52.580Z,52.41
2023-01-20T15:19:34.452Z,52.41
2023-01-20T15:22:22.001Z,51.86
2023-01-20T15:24:53.041Z,52.03
2023-01-20T15:27:41.489Z,51.94
2023-01-20T15:30:17.285Z,53.16
2023-01-20T15:32:49.145Z,53.05
2023-01-20T15:35:23.222Z,52.86
2023-01-20T15:37:54.413Z,52.87
2023-01-20T15:40:26.961Z,52.58
2023-01-20T15:43:20.101Z,52.60
2023-01-20T15:45:50.473Z,52.79
2023-01-20T15:48:26.915Z,52.65
2023-01-20T15:50:57.289Z,52.71
2023-01-20T15:53:27.859Z,52.56
2023-01-20T15:55:58.230Z,52.72
2023-01-20T15:58:37.593Z,52.33
2023-01-20T16:01:08.233Z,52.78
2023-01-20T16:03:38.483Z,52.46
2023-01-20T16:06:14.669Z,53.05
2023-01-20T16:08:48.618Z,54.02
2023-01-20T16:11:20.961Z,53.10
2023-01-20T16:13:51.343Z,54.49
2023-01-20T16:16:24.212Z,54.71
2023-01-20T16:18:55.151Z,55.29
2023-01-20T16:21:25.479Z,53.60
2023-01-20T16:23:55.841Z,53.25
2023-01-20T16:26:29.218Z,53.16
2023-01-20T16:29:00.583Z,53.58
2023-01-20T16:31:48.728Z,53.65
2023-01-20T16:34:19.108Z,53.61
2023-01-20T16:36:49.473Z,54.75
2023-01-20T16:39:19.790Z,53.69
2023-01-20T16:42:08.189Z,55.34
2023-01-20T16:44:39.053Z,53.91
2023-01-20T16:47:10.669Z,54.83
2023-01-20T16:49:41.320Z,54.97
2023-01-20T16:52:13.628Z,53.66
2023-01-20T16:54:43.946Z,53.86
2023-01-20T16:57:14.261Z,53.06
2023-01-20T16:59:44.504Z,54.02
2023-01-20T17:02:14.770Z,53.89
2023-01-20T17:04:44.922Z,53.97
2023-01-20T17:07:15.234Z,54.33
2023-01-20T17:09:45.824Z,53.96
2023-01-20T17:15:02.233Z,53.13
2023-01-20T17:17:32.519Z,53.66
2023-01-20T17:20:02.838Z,54.59
2023-01-20T17:22:33.007Z,54.38
2023-01-20T17:25:03.292Z,54.07
2023-01-20T17:27:33.464Z,54.25
2023-01-20T17:30:03.891Z,54.50
2023-01-20T17:32:34.147Z,54.55
2023-01-20T17:35:04.573Z,54.21
2023-01-20T17:37:35.006Z,53.95
2023-01-20T17:40:05.425Z,54.30
2023-01-20T17:42:35.585Z,54.05
2023-01-20T17:45:06.472Z,53.90
2023-01-20T17:47:36.703Z,53.71
2023-01-20T17:50:07.584Z,53.58
2023-01-20T17:52:37.858Z,53.89
2023-01-20T17:57:54.081Z,54.33
2023-01-20T18:00:24.644Z,54.17
2023-01-20T18:02:58.577Z,54.55
2023-01-20T18:05:30.578Z,54.43
2023-01-20T18:08:00.858Z,53.96
2023-01-20T18:10:30.958Z,53.70
2023-01-20T18:13:01.230Z,53.68
2023-01-20T18:15:31.524Z,54.09
2023-01-20T18:18:03.548Z,53.84
2023-01-20T18:20:33.806Z,53.81
2023-01-20T18:23:04.137Z,54.10
2023-01-20T18:25:34.221Z,54.23
2023-01-20T18:28:04.164Z,54.20
2023-01-20T18:30:34.385Z,53.98
2023-01-20T18:33:04.711Z,54.12
2023-01-20T18:35:34.868Z,53.86
2023-01-20T18:38:04.977Z,54.01
2023-01-20T18:40:35.303Z,54.08
2023-01-20T18:43:05.485Z,54.10
2023-01-20T18:45:36.213Z,54.13
2023-01-20T18:48:07.239Z,54.12
2023-01-20T18:50:37.549Z,54.31
2023-01-20T18:53:08.027Z,54.06
2023-01-20T18:55:38.973Z,54.00
2023-01-20T18:58:11.454Z,54.00
2023-01-20T19:00:41.765Z,54.04
2023-01-20T19:03:12.523Z,54.00
2023-01-20T19:05:42.765Z,53.97
2023-01-20T19:08:13.104Z,54.06
2023-01-20T19:10:43.128Z,54.05
2023-01-20T19:13:13.675Z,54.21
2023-01-20T19:15:45.026Z,54.22
2023-01-20T19:18:14.774Z,54.04
2023-01-20T19:20:44.776Z,54.57
2023-01-20T19:23:16.831Z,54.35
2023-01-20T19:25:47.246Z,54.42
2023-01-20T19:28:17.356Z,54.41
2023-01-20T19:30:47.455Z,54.54
2023-01-20T19:33:18.957Z,54.51
2023-01-20T19:35:48.779Z,54.54
2023-01-20T19:38:18.848Z,54.79
2023-01-20T19:40:48.987Z,54.83
2023-01-20T19:43:18.965Z,54.79
2023-01-20T19:45:49.328Z,54.76
2023-01-20T19:48:19.579Z,54.89
2023-01-20T19:50:49.808Z,55.23
2023-01-20T19:53:19.888Z,54.90
2023-01-20T19:55:51.341Z,55.35
2023-01-20T19:58:21.560Z,54.99
2023-01-20T20:00:51.666Z,54.94
2023-01-20T20:03:21.562Z,54.96
2023-01-20T20:05:51.717Z,54.86
2023-01-20T20:08:21.716Z,55.03
2023-01-20T20:10:51.680Z,54.94
2023-01-20T20:13:22.778Z,55.26
2023-01-20T20:16:02.052Z,54.87
2023-01-20T20:18:35.224Z,54.79
2023-01-20T20:21:07.258Z,55.25
2023-01-20T20:24:00.952Z,55.29
2023-01-20T20:26:33.656Z,55.10
2023-01-20T20:29:22.289Z,55.36
2023-01-20T20:31:52.455Z,55.37
2023-01-20T20:34:41.023Z,55.06
2023-01-20T20:37:11.177Z,55.27
2023-01-20T20:39:41.216Z,55.23
2023-01-20T20:42:11.283Z,55.35
2023-01-20T20:44:42.213Z,55.17
2023-01-20T20:47:12.411Z,55.38
2023-01-20T20:49:42.623Z,55.25
2023-01-20T20:52:12.753Z,55.32
2023-01-20T20:54:42.716Z,55.45
2023-01-20T20:57:12.852Z,55.46
2023-01-20T20:59:58.251Z,55.50
2023-01-20T21:02:30.413Z,55.13
2023-01-20T21:05:00.554Z,55.50
2023-01-20T21:07:30.919Z,55.57
2023-01-20T21:10:01.190Z,55.48
2023-01-20T21:12:32.332Z,55.69
2023-01-20T21:15:02.447Z,55.53
2023-01-20T21:17:32.567Z,55.50
2023-01-20T21:20:02.786Z,55.33
2023-01-20T21:22:33.351Z,55.64
2023-01-20T21:25:03.515Z,55.51
2023-01-20T21:27:36.260Z,55.69
2023-01-20T21:30:06.841Z,55.72
2023-01-20T21:32:43.241Z,55.50
2023-01-20T21:37:58.734Z,55.67
2023-01-20T21:40:28.824Z,55.75
2023-01-20T21:43:21.936Z,55.70
2023-01-20T21:45:56.537Z,55.80
2023-01-20T21:48:45.082Z,55.71
2023-01-20T21:51:33.624Z,55.68
2023-01-20T21:54:03.765Z,55.58
2023-01-20T21:56:33.773Z,55.81
2023-01-20T21:59:04.014Z,55.90
2023-01-20T22:01:34.568Z,55.70
2023-01-20T22:04:06.043Z,55.58
2023-01-20T22:06:35.718Z,55.65
2023-01-20T22:09:06.780Z,55.81
2023-01-20T22:11:36.961Z,55.55
2023-01-20T22:14:07.655Z,55.67
2023-01-20T22:16:38.014Z,55.66
2023-01-20T22:19:08.443Z,56.02
2023-01-20T22:21:38.629Z,56.01
2023-01-20T22:24:09.281Z,56.00
2023-01-20T22:26:39.657Z,56.16
2023-01-20T22:29:10.037Z,56.05
2023-01-20T22:31:42.564Z,56.29
2023-01-20T22:34:12.951Z,56.26
2023-01-20T22:36:43.708Z,56.43
2023-01-20T22:39:15.657Z,56.49
2023-01-20T22:41:46.659Z,56.72
2023-01-20T22:44:16.894Z,56.75
2023-01-20T22:46:47.129Z,56.61
2023-01-20T22:49:17.429Z,56.99
2023-01-20T22:51:47.946Z,56.94
2023-01-20T22:54:17.985Z,57.14
2023-01-20T22:56:49.230Z,56.93
2023-01-20T22:59:19.422Z,57.05
2023-01-20T23:01:49.785Z,56.75
2023-01-20T23:04:19.922Z,56.80
2023-01-20T23:06:50.238Z,56.84
2023-01-20T23:09:20.998Z,56.59
2023-01-20T23:11:51.413Z,56.89
2023-01-20T23:14:41.390Z,56.74
2023-01-20T23:17:11.507Z,56.54
2023-01-20T23:19:41.471Z,56.77
2023-01-20T23:22:14.191Z,56.73
2023-01-20T23:24:44.305Z,56.70
2023-01-20T23:27:14.570Z,56.73
2023-01-20T23:29:44.864Z,57.13
2023-01-20T23:32:15.245Z,57.37
2023-01-20T23:36:28.265Z,57.49
2023-01-20T23:38:59.495Z,57.10
2023-01-20T23:41:29.763Z,57.38
2023-01-20T23:43:59.927Z,57.66
2023-01-20T23:46:29.906Z,57.56
2023-01-20T23:48:59.755Z,57.41
2023-01-20T23:51:29.822Z,57.80
2023-01-20T23:54:00.117Z,57.27
2023-01-20T23:56:30.425Z,57.35
2023-01-20T23:59:00.935Z,57.60
